createdAt,value
2017-08-10T00:00:38.677Z,0
2017-08-10T00:01:40.061Z,0
2017-08-10T00:02:41.462Z,0
2017-08-10T00:03:42.940Z,0
2017-08-10T00:04:44.347Z,0
2017-08-10T00:05:45.748Z,0
2017-08-10T00:06:47.166Z,0
2017-08-10T00:07:48.632Z,0
2017-08-10T00:08:50.056Z,0
2017-08-10T00:09:51.547Z,0
2017-08-10T00:10:52.958Z,0
2017-08-10T00:11:54.393Z,0
2017-08-10T00:12:55.822Z,0
2017-08-10T00:13:57.250Z,0
2017-08-10T00:14:58.744Z,0
2017-08-10T00:16:00.111Z,0
2017-08-10T00:17:01.518Z,0
2017-08-10T00:18:02.912Z,0
2017-08-10T00:19:45.294Z,0
2017-08-10T00:20:46.676Z,0
2017-08-10T00:21:48.087Z,0
2017-08-10T00:22:49.448Z,0
2017-08-10T00:23:50.839Z,0
2017-08-10T00:24:52.348Z,0
2017-08-10T00:25:53.823Z,0
2017-08-10T00:26:55.244Z,0
2017-08-10T00:27:56.661Z,0
2017-08-10T00:28:58.099Z,0
2017-08-10T00:29:59.515Z,0
2017-08-10T00:31:00.950Z,0
2017-08-10T00:32:02.396Z,0
2017-08-10T00:33:03.791Z,0
2017-08-10T00:34:05.208Z,0
2017-08-10T00:35:47.587Z,0
2017-08-10T00:36:48.962Z,0
2017-08-10T00:37:50.349Z,0
2017-08-10T00:38:51.737Z,0
2017-08-10T00:39:53.125Z,0
2017-08-10T00:40:54.517Z,0
2017-08-10T00:42:36.879Z,0
2017-08-10T00:43:38.259Z,0
2017-08-10T00:44:39.637Z,0
2017-08-10T00:45:41.037Z,0
2017-08-10T00:46:42.421Z,0
2017-08-10T00:47:43.840Z,0
2017-08-10T00:48:45.235Z,0
2017-08-10T00:49:46.639Z,0
2017-08-10T00:50:48.216Z,0
2017-08-10T00:51:49.638Z,0
2017-08-10T00:52:51.045Z,0
2017-08-10T00:53:52.519Z,0
2017-08-10T00:54:54.036Z,0
2017-08-10T00:55:55.423Z,0
2017-08-10T00:56:56.827Z,0
2017-08-10T00:57:58.317Z,0
2017-08-10T00:58:59.708Z,0
2017-08-10T01:00:01.147Z,0
2017-08-10T01:01:02.557Z,0
2017-08-10T01:02:04.000Z,0
2017-08-10T01:03:05.455Z,0
2017-08-10T01:04:47.820Z,0
2017-08-10T01:05:49.204Z,0
2017-08-10T01:06:50.575Z,0
2017-08-10T01:07:51.964Z,0
2017-08-10T01:08:53.333Z,0
2017-08-10T01:09:54.732Z,0
2017-08-10T01:10:56.099Z,0
2017-08-10T01:11:57.473Z,0
2017-08-10T01:12:58.852Z,0
2017-08-10T01:14:00.256Z,0
2017-08-10T01:15:01.614Z,0
2017-08-10T01:16:02.991Z,0
2017-08-10T01:17:04.370Z,0
2017-08-10T01:18:05.748Z,0
2017-08-10T01:19:07.135Z,0
2017-08-10T01:20:08.513Z,0
2017-08-10T01:21:09.910Z,0
2017-08-10T01:22:11.364Z,0
2017-08-10T01:23:12.763Z,0
2017-08-10T01:24:14.227Z,0
2017-08-10T01:25:15.621Z,0
2017-08-10T01:26:17.052Z,0
2017-08-10T01:27:18.459Z,0
2017-08-10T01:28:19.892Z,0
2017-08-10T01:29:21.296Z,0
2017-08-10T01:30:22.750Z,0
2017-08-10T01:31:24.217Z,0
2017-08-10T01:32:25.664Z,0
2017-08-10T01:33:27.111Z,0
2017-08-10T01:34:28.502Z,0
2017-08-10T01:36:10.888Z,0
2017-08-10T01:37:12.251Z,0
2017-08-10T01:38:13.666Z,0
2017-08-10T01:39:15.015Z,0
2017-08-10T01:40:16.402Z,0
2017-08-10T01:41:17.779Z,0
2017-08-10T01:42:19.202Z,0
2017-08-10T01:43:20.607Z,0
2017-08-10T01:44:22.025Z,0
2017-08-10T01:45:23.485Z,0
2017-08-10T01:46:24.975Z,0
2017-08-10T01:47:26.372Z,0
2017-08-10T01:48:27.761Z,0
2017-08-10T01:49:29.274Z,0
2017-08-10T01:50:30.713Z,0
2017-08-10T01:52:13.082Z,0
2017-08-10T01:53:14.467Z,0
2017-08-10T01:54:15.846Z,0
2017-08-10T01:55:17.223Z,0
2017-08-10T01:56:18.625Z,0
2017-08-10T01:57:20.011Z,0
2017-08-10T01:58:21.390Z,0
2017-08-10T01:59:22.768Z,0
2017-08-10T02:00:24.300Z,0
2017-08-10T02:02:06.666Z,0
2017-08-10T02:03:08.050Z,0
2017-08-10T02:04:09.423Z,0
2017-08-10T02:05:10.839Z,0
2017-08-10T02:06:12.224Z,0
2017-08-10T02:07:13.600Z,0
2017-08-10T02:08:14.983Z,0
2017-08-10T02:09:16.368Z,0
2017-08-10T02:10:17.777Z,0
2017-08-10T02:11:19.220Z,0
2017-08-10T02:12:20.632Z,0
2017-08-10T02:13:22.085Z,0
2017-08-10T02:14:23.505Z,0
2017-08-10T02:16:06.115Z,0
2017-08-10T02:17:07.452Z,0
2017-08-10T02:18:08.824Z,0
2017-08-10T02:19:10.199Z,0
2017-08-10T02:20:11.582Z,0
2017-08-10T02:21:12.965Z,0
2017-08-10T02:22:14.343Z,0
2017-08-10T02:23:15.722Z,0
2017-08-10T02:24:17.101Z,0
2017-08-10T02:25:18.563Z,0
2017-08-10T02:26:20.037Z,0
2017-08-10T02:27:21.435Z,0
2017-08-10T02:28:22.925Z,0
2017-08-10T02:29:24.389Z,0
2017-08-10T02:31:06.752Z,0
2017-08-10T02:32:08.122Z,0
2017-08-10T02:33:09.501Z,0
2017-08-10T02:34:10.918Z,0
2017-08-10T02:35:12.298Z,0
2017-08-10T02:36:13.675Z,0
2017-08-10T02:37:15.063Z,0
2017-08-10T02:38:16.444Z,0
2017-08-10T02:39:17.825Z,0
2017-08-10T02:40:19.198Z,0
2017-08-10T02:41:20.575Z,0
2017-08-10T02:42:21.953Z,0
2017-08-10T02:43:23.331Z,0
2017-08-10T02:44:24.741Z,0
2017-08-10T02:45:26.145Z,0
2017-08-10T02:46:27.558Z,0
2017-08-10T02:47:29.025Z,0
2017-08-10T02:49:12.169Z,0
2017-08-10T02:50:13.540Z,0
2017-08-10T02:51:14.924Z,0
2017-08-10T02:52:16.346Z,0
2017-08-10T02:53:17.792Z,0
2017-08-10T02:54:19.264Z,0
2017-08-10T02:55:20.660Z,0
2017-08-10T02:56:22.049Z,0
2017-08-10T02:57:23.490Z,0
2017-08-10T02:58:24.950Z,0
2017-08-10T02:59:26.332Z,0
2017-08-10T03:00:27.805Z,0
2017-08-10T03:01:29.313Z,0
2017-08-10T03:03:11.678Z,0
2017-08-10T03:04:13.059Z,0
2017-08-10T03:05:14.489Z,0
2017-08-10T03:06:15.886Z,0
2017-08-10T03:07:17.279Z,0
2017-08-10T03:08:18.668Z,0
2017-08-10T03:09:20.109Z,0
2017-08-10T03:10:21.514Z,0
2017-08-10T03:11:22.953Z,0
2017-08-10T03:12:24.394Z,0
2017-08-10T03:13:25.817Z,0
2017-08-10T03:14:27.193Z,0
2017-08-10T03:15:28.603Z,0
2017-08-10T03:16:30.031Z,0
2017-08-10T03:17:31.449Z,0
2017-08-10T03:18:32.864Z,0
2017-08-10T03:19:34.314Z,0
2017-08-10T03:20:35.761Z,0
2017-08-10T03:21:37.179Z,0
2017-08-10T03:22:38.583Z,0
2017-08-10T03:23:40.097Z,0
2017-08-10T03:24:41.483Z,0
2017-08-10T03:25:42.927Z,0
2017-08-10T03:26:44.377Z,0
2017-08-10T03:27:45.794Z,0
2017-08-10T03:28:47.185Z,0
2017-08-10T03:29:48.586Z,0
2017-08-10T03:30:50.010Z,0
2017-08-10T03:31:51.475Z,0
2017-08-10T03:32:52.919Z,0
2017-08-10T03:33:54.338Z,0
2017-08-10T03:34:55.771Z,0
2017-08-10T03:35:57.199Z,0
2017-08-10T03:37:39.604Z,0
2017-08-10T03:38:40.972Z,4
2017-08-10T03:39:42.342Z,4
2017-08-10T03:40:43.731Z,4
2017-08-10T03:41:45.127Z,4
2017-08-10T03:42:46.512Z,4
2017-08-10T03:43:47.886Z,4
2017-08-10T03:44:49.271Z,8
2017-08-10T03:46:31.633Z,4
2017-08-10T03:47:33.009Z,8
2017-08-10T03:48:34.390Z,4
2017-08-10T03:49:35.768Z,8
2017-08-10T03:50:37.160Z,12
2017-08-10T03:51:38.559Z,8
2017-08-10T03:52:40.445Z,12
2017-08-10T03:53:41.864Z,12
2017-08-10T03:54:43.286Z,12
2017-08-10T03:55:44.697Z,16
2017-08-10T03:56:46.095Z,20
2017-08-10T03:57:47.532Z,20
2017-08-10T03:58:48.959Z,24
2017-08-10T03:59:50.386Z,24
2017-08-10T04:00:51.814Z,28
2017-08-10T04:01:53.244Z,32
2017-08-10T04:02:54.740Z,36
2017-08-10T04:03:56.132Z,40
2017-08-10T04:04:57.541Z,44
2017-08-10T04:05:58.957Z,48
2017-08-10T04:07:00.403Z,56
2017-08-10T04:08:01.857Z,60
2017-08-10T04:09:03.244Z,68
2017-08-10T04:10:04.666Z,72
2017-08-10T04:11:06.077Z,76
2017-08-10T04:12:07.511Z,80
2017-08-10T04:13:08.898Z,84
2017-08-10T04:14:10.292Z,88
2017-08-10T04:15:11.673Z,96
2017-08-10T04:16:13.052Z,108
2017-08-10T04:17:14.463Z,128
2017-08-10T04:18:15.855Z,148
2017-08-10T04:19:17.264Z,164
2017-08-10T04:20:18.701Z,180
2017-08-10T04:21:20.121Z,188
2017-08-10T04:22:21.551Z,204
2017-08-10T04:23:23.015Z,220
2017-08-10T04:24:24.571Z,240
2017-08-10T04:25:26.020Z,256
2017-08-10T04:27:08.508Z,260
2017-08-10T04:28:09.914Z,268
2017-08-10T04:29:11.320Z,292
2017-08-10T04:30:12.693Z,328
2017-08-10T04:31:14.076Z,368
2017-08-10T04:32:15.461Z,404
2017-08-10T04:33:16.843Z,444
2017-08-10T04:34:18.247Z,496
2017-08-10T04:35:19.698Z,556
2017-08-10T04:36:21.100Z,608
2017-08-10T04:37:22.486Z,640
2017-08-10T04:38:23.866Z,668
2017-08-10T04:39:25.258Z,704
2017-08-10T04:40:26.641Z,756
2017-08-10T04:41:28.024Z,808
2017-08-10T04:42:29.407Z,840
2017-08-10T04:43:30.796Z,844
2017-08-10T04:44:32.190Z,824
2017-08-10T04:46:14.549Z,792
2017-08-10T04:47:15.929Z,796
2017-08-10T04:48:17.307Z,820
2017-08-10T04:49:18.686Z,860
2017-08-10T04:50:20.413Z,932
2017-08-10T04:51:21.803Z,1028
2017-08-10T04:52:23.189Z,1116
2017-08-10T04:53:24.598Z,1196
2017-08-10T04:54:25.977Z,1236
2017-08-10T04:55:27.359Z,1244
2017-08-10T04:56:28.743Z,1232
2017-08-10T04:57:30.123Z,1208
2017-08-10T04:58:31.508Z,1184
2017-08-10T04:59:32.885Z,1184
2017-08-10T05:00:34.271Z,1216
2017-08-10T05:01:35.661Z,1280
2017-08-10T05:02:37.051Z,1368
2017-08-10T05:03:38.431Z,1468
2017-08-10T05:04:39.814Z,1560
2017-08-10T05:05:41.199Z,1644
2017-08-10T05:06:42.592Z,1724
2017-08-10T05:07:43.967Z,1816
2017-08-10T05:08:45.356Z,1912
2017-08-10T05:09:46.739Z,1996
2017-08-10T05:10:48.125Z,2064
2017-08-10T05:11:49.520Z,2100
2017-08-10T05:12:50.900Z,2112
2017-08-10T05:13:52.286Z,2108
2017-08-10T05:14:53.723Z,2120
2017-08-10T05:15:55.139Z,2156
2017-08-10T05:16:56.537Z,2220
2017-08-10T05:17:57.953Z,2316
2017-08-10T05:18:59.368Z,2472
2017-08-10T05:20:00.792Z,2664
2017-08-10T05:21:02.196Z,2900
2017-08-10T05:22:44.559Z,3308
2017-08-10T05:23:45.945Z,3540
2017-08-10T05:24:47.330Z,3748
2017-08-10T05:25:48.713Z,3940
2017-08-10T05:26:50.104Z,4124
2017-08-10T05:27:51.485Z,4324
2017-08-10T05:28:52.878Z,4544
2017-08-10T05:29:54.312Z,4788
2017-08-10T05:30:55.750Z,5028
2017-08-10T05:31:57.207Z,5248
2017-08-10T05:32:58.636Z,5400
2017-08-10T05:34:00.063Z,5460
2017-08-10T05:35:01.501Z,5416
2017-08-10T05:36:02.932Z,5300
2017-08-10T05:37:04.370Z,5148
2017-08-10T05:38:06.013Z,5056
2017-08-10T05:39:07.412Z,5056
2017-08-10T05:40:08.827Z,5084
2017-08-10T05:41:51.263Z,5044
2017-08-10T05:42:52.646Z,5036
2017-08-10T05:43:54.034Z,5088
2017-08-10T05:44:55.421Z,5220
2017-08-10T05:45:56.806Z,5392
2017-08-10T05:46:58.193Z,5596
2017-08-10T05:47:59.591Z,5856
2017-08-10T05:49:00.973Z,6160
2017-08-10T05:50:02.378Z,6412
2017-08-10T05:51:03.762Z,6576
2017-08-10T05:52:05.154Z,6620
2017-08-10T05:53:06.539Z,6776
2017-08-10T05:54:07.923Z,7080
2017-08-10T05:55:09.332Z,7516
2017-08-10T05:56:10.718Z,7964
2017-08-10T05:57:12.121Z,8280
2017-08-10T05:58:13.517Z,8424
2017-08-10T05:59:14.940Z,8264
2017-08-10T06:00:16.337Z,7932
2017-08-10T06:01:17.723Z,7476
2017-08-10T06:02:19.155Z,7104
2017-08-10T06:03:20.893Z,6936
2017-08-10T06:05:03.290Z,6808
2017-08-10T06:06:04.676Z,6812
2017-08-10T06:07:06.063Z,6808
2017-08-10T06:08:07.453Z,6792
2017-08-10T06:09:08.832Z,6752
2017-08-10T06:10:10.218Z,6848
2017-08-10T06:11:11.605Z,7124
2017-08-10T06:12:12.998Z,7368
2017-08-10T06:13:14.388Z,7612
2017-08-10T06:14:15.770Z,7932
2017-08-10T06:15:17.160Z,8268
2017-08-10T06:16:18.574Z,8380
2017-08-10T06:17:19.982Z,8336
2017-08-10T06:18:21.418Z,8048
2017-08-10T06:19:22.813Z,8020
2017-08-10T06:20:24.257Z,8480
2017-08-10T06:21:25.658Z,9280
2017-08-10T06:22:27.084Z,10060
2017-08-10T06:23:28.530Z,10600
2017-08-10T06:24:29.961Z,10716
2017-08-10T06:25:31.431Z,10420
2017-08-10T06:26:32.845Z,9988
2017-08-10T06:27:34.284Z,9692
2017-08-10T06:29:16.658Z,8968
2017-08-10T06:30:18.041Z,8432
2017-08-10T06:31:19.430Z,7916
2017-08-10T06:32:20.821Z,7608
2017-08-10T06:33:22.609Z,7576
2017-08-10T06:34:23.999Z,7672
2017-08-10T06:35:25.402Z,7744
2017-08-10T06:36:26.865Z,7716
2017-08-10T06:38:09.247Z,7672
2017-08-10T06:39:10.640Z,7696
2017-08-10T06:40:12.034Z,7724
2017-08-10T06:41:13.491Z,7764
2017-08-10T06:42:15.026Z,7796
2017-08-10T06:43:16.401Z,7768
2017-08-10T06:44:17.789Z,7748
2017-08-10T06:45:19.196Z,7780
2017-08-10T06:46:20.584Z,7836
2017-08-10T06:47:22.005Z,7924
2017-08-10T06:48:23.477Z,8032
2017-08-10T06:49:24.912Z,8204
2017-08-10T06:50:26.316Z,8484
2017-08-10T06:51:27.711Z,8976
2017-08-10T06:52:29.168Z,9628
2017-08-10T06:53:30.570Z,10140
2017-08-10T06:54:31.995Z,10140
2017-08-10T06:55:33.434Z,9832
2017-08-10T06:56:34.955Z,9456
2017-08-10T06:57:36.401Z,9064
2017-08-10T06:58:37.843Z,8560
2017-08-10T06:59:39.255Z,8056
2017-08-10T07:00:40.663Z,7776
2017-08-10T07:01:42.156Z,7700
2017-08-10T07:02:43.603Z,7724
2017-08-10T07:03:45.070Z,7860
2017-08-10T07:04:46.523Z,8060
2017-08-10T07:05:47.951Z,8256
2017-08-10T07:06:49.463Z,8232
2017-08-10T07:07:50.892Z,7832
2017-08-10T07:08:52.356Z,7172
2017-08-10T07:09:53.757Z,6404
2017-08-10T07:10:55.265Z,5772
2017-08-10T07:11:56.671Z,5384
2017-08-10T07:12:58.112Z,5268
2017-08-10T07:13:59.589Z,5320
2017-08-10T07:15:01.074Z,5400
2017-08-10T07:16:02.531Z,5436
2017-08-10T07:17:03.946Z,5480
2017-08-10T07:18:05.422Z,5520
2017-08-10T07:19:06.885Z,5520
2017-08-10T07:20:08.333Z,5432
2017-08-10T07:21:09.832Z,5200
2017-08-10T07:22:11.308Z,4912
2017-08-10T07:23:12.954Z,4676
2017-08-10T07:24:14.384Z,4612
2017-08-10T07:25:15.781Z,4720
2017-08-10T07:26:17.225Z,4860
2017-08-10T07:27:18.694Z,4904
2017-08-10T07:28:20.117Z,4816
2017-08-10T07:29:21.549Z,4688
2017-08-10T07:30:22.940Z,4560
2017-08-10T07:31:24.411Z,4436
2017-08-10T07:32:25.843Z,4352
2017-08-10T07:33:27.232Z,4272
2017-08-10T07:34:28.677Z,4160
2017-08-10T07:35:30.179Z,4024
2017-08-10T07:36:31.603Z,3916
2017-08-10T07:37:33.031Z,3860
2017-08-10T07:38:34.447Z,3880
2017-08-10T07:39:35.907Z,3996
2017-08-10T07:40:37.335Z,4220
2017-08-10T07:41:38.735Z,4608
2017-08-10T07:42:40.156Z,5196
2017-08-10T07:43:41.558Z,5964
2017-08-10T07:44:42.958Z,6836
2017-08-10T07:45:44.357Z,7780
2017-08-10T07:46:45.747Z,9120
2017-08-10T07:47:47.140Z,10904
2017-08-10T07:48:48.537Z,11960
2017-08-10T07:49:49.939Z,11752
2017-08-10T07:50:51.392Z,11236
2017-08-10T07:51:52.793Z,11320
2017-08-10T07:52:54.215Z,12572
2017-08-10T07:53:55.694Z,13692
2017-08-10T07:54:57.132Z,13032
2017-08-10T07:55:58.612Z,11988
2017-08-10T07:57:00.181Z,10708
2017-08-10T07:58:01.577Z,10276
2017-08-10T07:59:02.995Z,10500
2017-08-10T08:00:04.388Z,10860
2017-08-10T08:01:05.829Z,11428
2017-08-10T08:02:07.300Z,12004
2017-08-10T08:03:08.724Z,12656
2017-08-10T08:04:10.175Z,14984
2017-08-10T08:05:11.610Z,13876
2017-08-10T08:06:13.114Z,14072
2017-08-10T08:07:14.798Z,14496
2017-08-10T08:08:16.474Z,15112
2017-08-10T08:09:18.164Z,15904
2017-08-10T08:10:19.600Z,18560
2017-08-10T08:11:21.062Z,15516
2017-08-10T08:12:22.516Z,14576
2017-08-10T08:13:23.928Z,13952
2017-08-10T08:14:25.378Z,13108
2017-08-10T08:15:26.764Z,12212
2017-08-10T08:16:28.166Z,11696
2017-08-10T08:17:29.596Z,11524
2017-08-10T08:18:31.015Z,11364
2017-08-10T08:19:32.474Z,11264
2017-08-10T08:20:33.882Z,11348
2017-08-10T08:21:35.444Z,11464
2017-08-10T08:22:36.860Z,11792
2017-08-10T08:23:38.355Z,12236
2017-08-10T08:24:39.800Z,12676
2017-08-10T08:25:41.224Z,13124
2017-08-10T08:26:42.654Z,13744
2017-08-10T08:27:44.117Z,14600
2017-08-10T08:28:45.574Z,15776
2017-08-10T08:29:47.029Z,16992
2017-08-10T08:30:48.735Z,17888
2017-08-10T08:31:50.227Z,18272
2017-08-10T08:32:51.647Z,18432
2017-08-10T08:33:53.036Z,18272
2017-08-10T08:34:54.511Z,17952
2017-08-10T08:35:55.952Z,17984
2017-08-10T08:36:57.365Z,18304
2017-08-10T08:37:58.775Z,18784
2017-08-10T08:39:00.231Z,19392
2017-08-10T08:40:01.671Z,20448
2017-08-10T08:41:03.118Z,21760
2017-08-10T08:42:45.506Z,23040
2017-08-10T08:43:46.906Z,22432
2017-08-10T08:44:48.287Z,20928
2017-08-10T08:45:49.673Z,19168
2017-08-10T08:46:51.074Z,17536
2017-08-10T08:47:52.465Z,16192
2017-08-10T08:48:53.858Z,14720
2017-08-10T08:49:55.257Z,13448
2017-08-10T08:50:56.650Z,12404
2017-08-10T08:51:58.039Z,11520
2017-08-10T08:52:59.431Z,10836
2017-08-10T08:54:00.818Z,10352
2017-08-10T08:55:02.211Z,9964
2017-08-10T08:56:03.604Z,9612
2017-08-10T08:57:05.015Z,9436
2017-08-10T08:58:06.408Z,9560
2017-08-10T08:59:07.837Z,9932
2017-08-10T09:00:09.226Z,10252
2017-08-10T09:01:10.676Z,10424
2017-08-10T09:02:12.109Z,10632
2017-08-10T09:03:13.585Z,11020
2017-08-10T09:04:15.076Z,11700
2017-08-10T09:05:16.553Z,12504
2017-08-10T09:06:17.939Z,12964
2017-08-10T09:07:19.374Z,12856
2017-08-10T09:08:20.836Z,12256
2017-08-10T09:09:22.298Z,11268
2017-08-10T09:10:23.698Z,9640
2017-08-10T09:11:25.107Z,7988
2017-08-10T09:12:26.506Z,6944
2017-08-10T09:13:27.960Z,6592
2017-08-10T09:14:29.361Z,6720
2017-08-10T09:15:30.794Z,7176
2017-08-10T09:16:32.199Z,7928
2017-08-10T09:17:33.632Z,8948
2017-08-10T09:18:35.092Z,10292
2017-08-10T09:19:36.520Z,12536
2017-08-10T09:20:37.965Z,15216
2017-08-10T09:21:39.455Z,16064
2017-08-10T09:22:40.901Z,14588
2017-08-10T09:23:42.297Z,13936
2017-08-10T09:24:43.749Z,14172
2017-08-10T09:25:45.208Z,15320
2017-08-10T09:26:46.649Z,16544
2017-08-10T09:27:48.063Z,17696
2017-08-10T09:28:49.456Z,18720
2017-08-10T09:29:50.916Z,20192
2017-08-10T09:30:52.363Z,21152
2017-08-10T09:32:34.751Z,20640
2017-08-10T09:33:36.163Z,19904
2017-08-10T09:34:37.540Z,20352
2017-08-10T09:35:38.937Z,22560
2017-08-10T09:36:40.366Z,23968
2017-08-10T09:37:41.757Z,24128
2017-08-10T09:38:43.151Z,21760
2017-08-10T09:39:44.547Z,19392
2017-08-10T09:40:45.964Z,17952
2017-08-10T09:41:47.427Z,17280
2017-08-10T09:42:48.842Z,17696
2017-08-10T09:43:50.288Z,19168
2017-08-10T09:44:51.687Z,20704
2017-08-10T09:45:53.083Z,21344
2017-08-10T09:46:54.473Z,21216
2017-08-10T09:47:55.871Z,21248
2017-08-10T09:48:57.325Z,21568
2017-08-10T09:49:58.996Z,22368
2017-08-10T09:51:00.781Z,23264
2017-08-10T09:52:02.513Z,22912
2017-08-10T09:53:44.893Z,19264
2017-08-10T09:54:46.284Z,17344
2017-08-10T09:55:47.682Z,16352
2017-08-10T09:56:49.069Z,15316
2017-08-10T09:57:50.473Z,14688
2017-08-10T09:58:51.868Z,14408
2017-08-10T09:59:53.282Z,14872
2017-08-10T10:00:54.678Z,16192
2017-08-10T10:01:56.066Z,17920
2017-08-10T10:02:57.672Z,19872
2017-08-10T10:03:59.085Z,21824
2017-08-10T10:05:00.533Z,22112
2017-08-10T10:06:01.978Z,21120
2017-08-10T10:07:03.437Z,20544
2017-08-10T10:08:04.837Z,22464
2017-08-10T10:09:06.335Z,26848
2017-08-10T10:10:07.753Z,34848
2017-08-10T10:11:09.163Z,36480
2017-08-10T10:12:10.837Z,32320
2017-08-10T10:13:12.516Z,27296
2017-08-10T10:14:13.928Z,22336
2017-08-10T10:15:15.404Z,20128
2017-08-10T10:16:16.836Z,19680
2017-08-10T10:17:18.344Z,18784
2017-08-10T10:19:00.740Z,14812
2017-08-10T10:20:02.139Z,13228
2017-08-10T10:21:03.530Z,13344
2017-08-10T10:22:04.973Z,14348
2017-08-10T10:23:06.390Z,14888
2017-08-10T10:24:07.791Z,14256
2017-08-10T10:25:09.186Z,13508
2017-08-10T10:26:10.658Z,13020
2017-08-10T10:27:12.118Z,12404
2017-08-10T10:28:13.556Z,11972
2017-08-10T10:29:14.984Z,12000
2017-08-10T10:30:16.387Z,12420
2017-08-10T10:31:17.843Z,13280
2017-08-10T10:32:19.264Z,14440
2017-08-10T10:33:20.795Z,15424
2017-08-10T10:34:22.226Z,15604
2017-08-10T10:35:23.668Z,14960
2017-08-10T10:36:25.130Z,14188
2017-08-10T10:37:26.578Z,12816
2017-08-10T10:39:08.945Z,11044
2017-08-10T10:40:10.387Z,11436
2017-08-10T10:41:11.766Z,11808
2017-08-10T10:42:13.160Z,11816
2017-08-10T10:43:14.551Z,11552
2017-08-10T10:44:15.944Z,11372
2017-08-10T10:45:17.336Z,11556
2017-08-10T10:46:18.904Z,12280
2017-08-10T10:47:20.301Z,13168
2017-08-10T10:48:21.682Z,13772
2017-08-10T10:49:23.077Z,13844
2017-08-10T10:50:24.503Z,13700
2017-08-10T10:51:25.969Z,13344
2017-08-10T10:52:27.408Z,12812
2017-08-10T10:53:28.823Z,12536
2017-08-10T10:54:30.316Z,12308
2017-08-10T10:55:31.769Z,11832
2017-08-10T10:57:14.163Z,10752
2017-08-10T10:58:15.554Z,10496
2017-08-10T10:59:16.950Z,10684
2017-08-10T11:00:18.339Z,10816
2017-08-10T11:01:19.729Z,10816
2017-08-10T11:02:21.133Z,10656
2017-08-10T11:03:22.526Z,10908
2017-08-10T11:04:23.919Z,11516
2017-08-10T11:05:25.312Z,12172
2017-08-10T11:07:07.701Z,13792
2017-08-10T11:08:09.090Z,13828
2017-08-10T11:09:10.563Z,12660
2017-08-10T11:10:11.958Z,11172
2017-08-10T11:11:13.340Z,9972
2017-08-10T11:12:14.733Z,9780
2017-08-10T11:13:16.135Z,10392
2017-08-10T11:14:17.525Z,10632
2017-08-10T11:15:18.911Z,9768
2017-08-10T11:16:20.311Z,8396
2017-08-10T11:17:21.710Z,7200
2017-08-10T11:18:23.157Z,6408
2017-08-10T11:19:24.567Z,5800
2017-08-10T11:20:26.038Z,5320
2017-08-10T11:21:27.476Z,5284
2017-08-10T11:22:28.908Z,5624
2017-08-10T11:23:30.379Z,5940
2017-08-10T11:24:31.786Z,6288
2017-08-10T11:25:33.229Z,6804
2017-08-10T11:26:34.650Z,7208
2017-08-10T11:27:36.101Z,7148
2017-08-10T11:28:37.532Z,6744
2017-08-10T11:29:38.973Z,6488
2017-08-10T11:30:40.413Z,6608
2017-08-10T11:31:41.868Z,6892
2017-08-10T11:32:43.321Z,7168
2017-08-10T11:33:44.754Z,7488
2017-08-10T11:34:46.178Z,7900
2017-08-10T11:35:47.621Z,8280
2017-08-10T11:36:49.074Z,8408
2017-08-10T11:37:50.474Z,8436
2017-08-10T11:38:51.913Z,8380
2017-08-10T11:39:53.373Z,8140
2017-08-10T11:40:54.794Z,7788
2017-08-10T11:41:56.212Z,7268
2017-08-10T11:42:57.644Z,6532
2017-08-10T11:43:59.087Z,5788
2017-08-10T11:45:00.585Z,5252
2017-08-10T11:46:02.061Z,5224
2017-08-10T11:47:03.499Z,5668
2017-08-10T11:48:05.040Z,6052
2017-08-10T11:49:06.462Z,5848
2017-08-10T11:50:07.912Z,5384
2017-08-10T11:51:09.367Z,5268
2017-08-10T11:52:10.817Z,5508
2017-08-10T11:53:12.230Z,5800
2017-08-10T11:54:13.667Z,6132
2017-08-10T11:55:15.067Z,6404
2017-08-10T11:56:16.508Z,6308
2017-08-10T11:57:17.965Z,5988
2017-08-10T11:58:19.361Z,5672
2017-08-10T11:59:20.804Z,5476
2017-08-10T12:00:22.240Z,5112
2017-08-10T12:02:04.623Z,5100
2017-08-10T12:03:06.033Z,5444
2017-08-10T12:04:07.417Z,5952
2017-08-10T12:05:08.812Z,6268
2017-08-10T12:06:10.194Z,6204
2017-08-10T12:07:11.590Z,5924
2017-08-10T12:08:12.975Z,5600
2017-08-10T12:09:14.366Z,5416
2017-08-10T12:10:15.784Z,5520
2017-08-10T12:11:17.169Z,5932
2017-08-10T12:12:18.558Z,6600
2017-08-10T12:13:19.940Z,7288
2017-08-10T12:14:21.424Z,7724
2017-08-10T12:15:22.839Z,7804
2017-08-10T12:16:24.231Z,7984
2017-08-10T12:17:25.682Z,8168
2017-08-10T12:18:27.174Z,7952
2017-08-10T12:19:28.647Z,7628
2017-08-10T12:20:30.068Z,7204
2017-08-10T12:21:31.524Z,6580
2017-08-10T12:22:32.950Z,5812
2017-08-10T12:23:34.447Z,5256
2017-08-10T12:24:35.942Z,4924
2017-08-10T12:25:37.310Z,4752
2017-08-10T12:26:38.714Z,4744
2017-08-10T12:27:40.147Z,4768
2017-08-10T12:28:41.609Z,4728
2017-08-10T12:29:43.012Z,4700
2017-08-10T12:30:44.458Z,4636
2017-08-10T12:31:45.924Z,4652
2017-08-10T12:32:47.323Z,4784
2017-08-10T12:34:29.693Z,4828
2017-08-10T12:35:31.091Z,4648
2017-08-10T12:36:32.478Z,4364
2017-08-10T12:37:33.862Z,4184
2017-08-10T12:38:35.249Z,4180
2017-08-10T12:39:36.635Z,4256
2017-08-10T12:40:38.023Z,4332
2017-08-10T12:41:39.409Z,4428
2017-08-10T12:42:40.805Z,4540
2017-08-10T12:43:42.187Z,4716
2017-08-10T12:44:43.573Z,4960
2017-08-10T12:45:44.959Z,5172
2017-08-10T12:46:46.353Z,5332
2017-08-10T12:47:47.734Z,5544
2017-08-10T12:48:49.126Z,5692
2017-08-10T12:49:50.564Z,5696
2017-08-10T12:50:51.980Z,5636
2017-08-10T12:51:53.454Z,5552
2017-08-10T12:52:54.939Z,5300
2017-08-10T12:53:56.586Z,4960
2017-08-10T12:54:58.047Z,4688
2017-08-10T12:55:59.464Z,4508
2017-08-10T12:57:00.945Z,4320
2017-08-10T12:58:02.398Z,4228
2017-08-10T12:59:03.788Z,4372
2017-08-10T13:00:05.218Z,4660
2017-08-10T13:01:06.665Z,4948
2017-08-10T13:02:08.091Z,4984
2017-08-10T13:03:09.683Z,4748
2017-08-10T13:04:11.092Z,4424
2017-08-10T13:05:12.662Z,4236
2017-08-10T13:06:14.351Z,4244
2017-08-10T13:07:56.716Z,4328
2017-08-10T13:08:58.098Z,4312
2017-08-10T13:09:59.482Z,4292
2017-08-10T13:11:00.876Z,4332
2017-08-10T13:12:02.271Z,4444
2017-08-10T13:13:03.662Z,4532
2017-08-10T13:14:05.057Z,4440
2017-08-10T13:15:06.447Z,4112
2017-08-10T13:16:07.827Z,3760
2017-08-10T13:17:50.216Z,3796
2017-08-10T13:18:51.601Z,3940
2017-08-10T13:19:52.989Z,3932
2017-08-10T13:20:54.369Z,3952
2017-08-10T13:21:55.760Z,4104
2017-08-10T13:22:57.164Z,4428
2017-08-10T13:23:58.830Z,5028
2017-08-10T13:25:00.236Z,5980
2017-08-10T13:26:01.692Z,7276
2017-08-10T13:27:03.106Z,8792
2017-08-10T13:28:04.506Z,10244
2017-08-10T13:29:05.957Z,11432
2017-08-10T13:30:07.345Z,12156
2017-08-10T13:31:08.740Z,12308
2017-08-10T13:32:10.153Z,11400
2017-08-10T13:33:52.524Z,8620
2017-08-10T13:34:53.925Z,7052
2017-08-10T13:35:55.313Z,6008
2017-08-10T13:36:56.693Z,5376
2017-08-10T13:37:58.103Z,4964
2017-08-10T13:38:59.473Z,4696
2017-08-10T13:40:00.857Z,4492
2017-08-10T13:41:02.279Z,4324
2017-08-10T13:42:03.665Z,4256
2017-08-10T13:43:05.048Z,4272
2017-08-10T13:44:47.435Z,4260
2017-08-10T13:45:48.829Z,4136
2017-08-10T13:46:50.214Z,4120
2017-08-10T13:47:51.603Z,4264
2017-08-10T13:48:53.001Z,4476
2017-08-10T13:49:54.383Z,4624
2017-08-10T13:50:55.792Z,4696
2017-08-10T13:51:57.200Z,4780
2017-08-10T13:52:58.582Z,4936
2017-08-10T13:54:00.028Z,5136
2017-08-10T13:55:01.470Z,5388
2017-08-10T13:56:02.895Z,5752
2017-08-10T13:57:04.314Z,6192
2017-08-10T13:58:05.751Z,6616
2017-08-10T13:59:07.154Z,6892
2017-08-10T14:00:08.622Z,6876
2017-08-10T14:01:10.079Z,6604
2017-08-10T14:02:11.548Z,6344
2017-08-10T14:03:12.952Z,6316
2017-08-10T14:04:14.384Z,6640
2017-08-10T14:05:15.783Z,6836
2017-08-10T14:06:17.191Z,6884
2017-08-10T14:07:18.599Z,7264
2017-08-10T14:08:19.995Z,8044
2017-08-10T14:09:21.404Z,8676
2017-08-10T14:10:22.810Z,9172
2017-08-10T14:11:24.513Z,9732
2017-08-10T14:12:25.952Z,10364
2017-08-10T14:13:27.378Z,10460
2017-08-10T14:14:28.797Z,9924
2017-08-10T14:16:11.232Z,9344
2017-08-10T14:17:12.633Z,9512
2017-08-10T14:18:14.032Z,9900
2017-08-10T14:19:15.405Z,10184